Time;durP1;ratioP1;P1;durP2;ratioP2;P2;SDS_P1;SDS_P2;PMS_P1;PMS_P2;Temp;Humidity;BMP_temperature;BMP_pressure;BME280_temperature;BME280_humidity;BME280_pressure;Samples;Min_cycle;Max_cycle;Signal;HPM_P1;HPM_P2
2023/01/20 00:00:22;;;;;;;10.40;8.30;;;2.00;99.90;;;;;;5046749;28;20185;-62
2023/01/20 00:02:48;;;;;;;10.30;8.60;;;2.10;99.90;;;;;;5044591;28;20197;-61
2023/01/20 00:05:13;;;;;;;8.53;7.60;;;1.40;99.90;;;;;;5046592;28;20212;-61
2023/01/20 00:07:39;;;;;;;10.30;8.90;;;2.10;99.90;;;;;;5047960;28;20190;-61
2023/01/20 00:10:05;;;;;;;8.67;7.77;;;1.60;99.90;;;;;;5042601;28;20194;-62
2023/01/20 00:12:31;;;;;;;10.80;6.63;;;2.30;99.90;;;;;;5060168;28;20208;-61
2023/01/20 00:14:56;;;;;;;8.23;7.30;;;2.20;99.90;;;;;;5042556;28;20293;-61
2023/01/20 00:17:22;;;;;;;9.73;7.80;;;2.20;99.90;;;;;;5038872;28;20209;-62
2023/01/20 00:19:47;;;;;;;11.10;7.60;;;1.50;99.90;;;;;;5047291;28;20677;-62
2023/01/20 00:22:13;;;;;;;8.80;7.30;;;2.10;99.90;;;;;;5044264;28;20297;-61
2023/01/20 00:24:39;;;;;;;9.40;7.33;;;2.20;99.90;;;;;;5041250;28;20181;-60
2023/01/20 00:27:05;;;;;;;9.57;7.63;;;2.40;99.90;;;;;;5042418;28;20202;-62
2023/01/20 00:29:30;;;;;;;9.03;7.90;;;1.50;99.90;;;;;;5047540;28;20667;-62
2023/01/20 00:31:56;;;;;;;9.20;8.30;;;2.10;99.90;;;;;;5045691;28;20488;-62
2023/01/20 00:34:21;;;;;;;8.83;7.93;;;2.40;99.90;;;;;;5048303;28;20186;-62
2023/01/20 00:36:47;;;;;;;7.47;6.77;;;1.80;99.90;;;;;;5046419;28;20201;-62
2023/01/20 00:39:13;;;;;;;7.78;6.72;;;1.70;99.90;;;;;;5048685;28;20280;-61
2023/01/20 00:41:39;;;;;;;9.70;8.30;;;1.90;99.90;;;;;;5048845;28;20657;-61
2023/01/20 00:44:04;;;;;;;8.67;7.77;;;1.30;99.90;;;;;;5050086;28;20194;-61
2023/01/20 00:46:30;;;;;;;10.63;7.20;;;2.00;99.90;;;;;;5047675;28;20587;-61
2023/01/20 00:48:56;;;;;;;9.40;6.87;;;1.90;99.90;;;;;;5049633;28;20186;-61
2023/01/20 00:51:21;;;;;;;7.97;7.17;;;2.10;99.90;;;;;;5047549;28;20194;-61
2023/01/20 00:53:47;;;;;;;8.40;7.03;;;1.90;99.90;;;;;;5047316;28;20205;-62
2023/01/20 00:56:13;;;;;;;7.30;6.50;;;2.20;99.90;;;;;;5045215;28;20206;-63
2023/01/20 00:58:40;;;;;;;9.03;7.13;;;2.10;99.90;;;;;;5045811;28;20203;-62
2023/01/20 01:01:06;;;;;;;8.50;6.78;;;2.50;99.90;;;;;;5040684;28;20646;-62
2023/01/20 01:03:32;;;;;;;7.83;6.63;;;2.10;99.90;;;;;;5044735;28;20190;-62
2023/01/20 01:06:13;;;;;;;7.60;6.47;;;2.00;99.90;;;;;;5040817;28;20742;-62
2023/01/20 01:08:38;;;;;;;8.05;7.22;;;2.00;99.90;;;;;;5043165;28;20674;-62
2023/01/20 01:11:04;;;;;;;8.80;6.33;;;2.00;99.90;;;;;;5040218;28;20194;-62
2023/01/20 01:13:31;;;;;;;7.80;7.00;;;2.10;99.90;;;;;;5039814;28;20643;-61
2023/01/20 01:15:56;;;;;;;7.88;6.60;;;2.10;99.90;;;;;;5043256;28;20841;-61
2023/01/20 01:18:22;;;;;;;8.00;6.77;;;2.20;99.90;;;;;;5045826;28;20181;-61
2023/01/20 01:20:48;;;;;;;7.35;6.65;;;2.10;99.90;;;;;;5042407;28;20185;-61
2023/01/20 01:23:14;;;;;;;7.83;6.60;;;2.10;99.90;;;;;;5040581;28;20187;-62
2023/01/20 01:25:39;;;;;;;9.87;7.80;;;1.70;99.90;;;;;;5042455;28;20267;-61
2023/01/20 01:28:05;;;;;;;9.13;8.23;;;2.10;99.90;;;;;;5041618;28;20643;-61
2023/01/20 01:30:30;;;;;;;7.63;6.83;;;2.20;99.90;;;;;;5041832;28;20212;-61
2023/01/20 01:32:56;;;;;;;8.87;7.13;;;2.00;99.90;;;;;;5044514;28;20305;-61
2023/01/20 01:35:22;;;;;;;8.00;7.30;;;2.00;99.90;;;;;;5042628;28;20662;-61
2023/01/20 01:37:47;;;;;;;7.27;6.47;;;1.70;99.90;;;;;;5041167;28;20718;-61
2023/01/20 01:40:13;;;;;;;9.17;6.83;;;1.90;99.90;;;;;;5043368;28;20185;-61
2023/01/20 01:42:39;;;;;;;7.47;6.70;;;1.90;99.90;;;;;;5045003;28;20198;-61
2023/01/20 01:45:10;;;;;;;8.80;7.23;;;2.00;99.90;;;;;;5044111;28;20217;-61
2023/01/20 01:47:48;;;;;;;13.70;7.95;;;2.10;99.90;;;;;;5039204;28;20200;-61
2023/01/20 01:50:26;;;;;;;8.88;7.63;;;1.90;99.90;;;;;;5037140;28;20263;-61
2023/01/20 01:52:54;;;;;;;7.45;6.75;;;2.20;99.90;;;;;;5042739;28;20590;-61
2023/01/20 01:55:24;;;;;;;8.70;7.63;;;1.50;99.90;;;;;;5044884;28;20281;-61
2023/01/20 01:57:51;;;;;;;7.57;6.53;;;2.20;99.90;;;;;;5041582;28;20265;-61
2023/01/20 02:00:17;;;;;;;7.47;6.28;;;2.10;99.90;;;;;;5043898;28;20190;-61
2023/01/20 02:02:44;;;;;;;8.83;7.37;;;2.00;99.90;;;;;;5041879;28;20308;-61
2023/01/20 02:05:12;;;;;;;9.82;7.07;;;2.50;99.90;;;;;;5039004;28;20470;-61
2023/01/20 02:07:39;;;;;;;9.82;7.10;;;1.70;99.90;;;;;;5041314;28;20302;-61
2023/01/20 02:10:05;;;;;;;8.02;6.88;;;1.30;99.90;;;;;;5041857;28;20593;-61
2023/01/20 02:12:30;;;;;;;7.38;6.63;;;1.90;99.90;;;;;;5041211;28;20331;-61
2023/01/20 02:14:58;;;;;;;8.40;6.90;;;2.00;99.90;;;;;;5041118;28;20300;-61
2023/01/20 02:17:29;;;;;;;8.55;6.85;;;1.30;99.90;;;;;;5038868;28;20448;-61
2023/01/20 02:20:23;;;;;;;8.20;7.03;;;2.00;99.90;;;;;;5038499;28;20265;-60
2023/01/20 02:23:16;;;;;;;7.97;6.85;;;1.70;99.90;;;;;;5039168;28;20185;-60
2023/01/20 02:25:51;;;;;;;8.80;7.43;;;1.90;99.90;;;;;;5041436;28;20201;-61
2023/01/20 02:28:25;;;;;;;8.45;6.47;;;2.00;99.90;;;;;;5040665;28;20186;-61
2023/01/20 02:30:57;;;;;;;9.07;6.90;;;1.90;99.90;;;;;;5041339;28;20316;-62
2023/01/20 02:33:30;;;;;;;6.60;5.75;;;2.00;99.90;;;;;;5044123;28;20214;-61
2023/01/20 02:36:05;;;;;;;7.68;6.88;;;2.10;99.90;;;;;;5043184;28;20300;-61
2023/01/20 02:39:07;;;;;;;8.45;7.07;;;1.90;99.90;;;;;;5045437;28;20192;-61
2023/01/20 02:41:35;;;;;;;7.93;7.10;;;1.90;99.90;;;;;;5009261;28;20654;-60
2023/01/20 02:44:23;;;;;;;8.45;7.35;;;2.10;99.90;;;;;;5047943;28;20181;-61
2023/01/20 02:47:25;;;;;;;9.90;8.88;;;2.10;99.90;;;;;;5044166;28;20213;-62
2023/01/20 02:50:00;;;;;;;9.52;8.30;;;2.00;99.90;;;;;;5021132;28;20197;-61
2023/01/20 02:52:30;;;;;;;8.88;7.70;;;1.90;99.90;;;;;;5047171;28;20213;-62
2023/01/20 02:55:00;;;;;;;9.70;8.70;;;2.20;99.90;;;;;;5044175;28;20212;-62
2023/01/20 02:57:36;;;;;;;9.75;8.00;;;1.60;99.90;;;;;;5045108;28;20189;-61
2023/01/20 03:00:23;;;;;;;9.15;8.10;;;1.80;99.90;;;;;;5039157;28;20544;-61
2023/01/20 03:02:52;;;;;;;11.40;8.48;;;1.90;99.90;;;;;;5039492;28;20186;-60
2023/01/20 03:05:33;;;;;;;8.52;7.65;;;2.10;99.90;;;;;;5042388;28;20209;-61
2023/01/20 03:08:03;;;;;;;9.52;8.45;;;1.90;99.90;;;;;;5039018;28;20181;-61
2023/01/20 03:10:32;;;;;;;8.70;7.63;;;1.40;99.90;;;;;;5041182;28;20239;-61
2023/01/20 03:13:04;;;;;;;9.40;7.90;;;2.10;99.90;;;;;;5042377;28;20223;-61
2023/01/20 03:15:56;;;;;;;9.43;8.43;;;2.00;99.90;;;;;;5039399;28;20212;-61
2023/01/20 03:18:22;;;;;;;9.38;8.05;;;2.00;99.90;;;;;;5033446;28;20190;-61
2023/01/20 03:20:48;;;;;;;9.70;8.43;;;1.90;99.90;;;;;;5038120;28;20175;-61
2023/01/20 03:23:13;;;;;;;10.60;8.40;;;2.00;99.90;;;;;;5041407;28;20482;-61
2023/01/20 03:25:40;;;;;;;10.50;8.43;;;2.10;99.90;;;;;;5041084;28;20202;-63
2023/01/20 03:28:06;;;;;;;11.95;8.27;;;1.50;99.90;;;;;;5042444;28;20189;-61
2023/01/20 03:30:31;;;;;;;8.38;7.15;;;2.20;99.90;;;;;;5038096;28;20201;-61
2023/01/20 03:32:58;;;;;;;10.53;8.40;;;2.20;99.90;;;;;;5040099;28;20210;-62
2023/01/20 03:35:24;;;;;;;8.23;7.43;;;2.20;99.90;;;;;;5044283;28;20194;-61
2023/01/20 03:37:50;;;;;;;9.50;8.40;;;2.20;99.90;;;;;;5042704;28;20657;-61
2023/01/20 03:40:16;;;;;;;8.70;6.80;;;2.30;99.90;;;;;;5033833;28;20261;-61
2023/01/20 03:43:11;;;;;;;8.40;7.60;;;2.30;99.90;;;;;;5041665;28;20513;-61
2023/01/20 03:45:36;;;;;;;9.35;7.70;;;2.00;99.90;;;;;;5044786;28;20544;-61
2023/01/20 03:48:15;;;;;;;10.50;7.93;;;2.30;99.90;;;;;;5044848;28;20739;-62
2023/01/20 03:50:54;;;;;;;9.30;8.18;;;2.00;99.90;;;;;;5051097;28;20818;-61
2023/01/20 03:53:47;;;;;;;9.52;8.63;;;2.20;99.90;;;;;;5045341;28;20232;-61
2023/01/20 03:56:19;;;;;;;8.80;7.63;;;2.10;99.90;;;;;;5043879;28;20224;-61
2023/01/20 03:58:49;;;;;;;9.68;8.20;;;2.20;99.90;;;;;;5048793;28;20181;-61
2023/01/20 04:01:18;;;;;;;10.20;8.00;;;2.20;99.90;;;;;;5045542;28;20190;-61
2023/01/20 04:03:46;;;;;;;8.60;7.55;;;2.00;99.90;;;;;;5047726;28;20332;-61
2023/01/20 04:06:13;;;;;;;9.02;8.07;;;2.60;99.90;;;;;;5048113;28;20675;-61
2023/01/20 04:08:46;;;;;;;9.10;8.15;;;2.20;99.90;;;;;;5049940;28;20605;-61
2023/01/20 04:11:12;;;;;;;9.85;8.63;;;2.10;99.90;;;;;;5043013;28;20190;-61
2023/01/20 04:13:38;;;;;;;10.70;9.10;;;2.10;99.90;;;;;;5048765;28;20622;-61
2023/01/20 04:16:13;;;;;;;10.67;9.57;;;2.10;99.90;;;;;;5043961;28;20303;-61
2023/01/20 04:18:41;;;;;;;8.90;7.80;;;2.20;99.90;;;;;;5044438;28;20220;-61
2023/01/20 04:21:13;;;;;;;7.95;7.15;;;2.10;99.90;;;;;;5047130;28;20181;-61
2023/01/20 04:23:45;;;;;;;8.63;7.63;;;1.90;99.90;;;;;;5045155;28;20600;-61
2023/01/20 04:26:10;;;;;;;9.75;7.43;;;2.30;99.90;;;;;;5048981;28;20267;-61
2023/01/20 04:28:36;;;;;;;10.57;8.30;;;2.20;99.90;;;;;;5049123;28;20597;-61
2023/01/20 04:31:02;;;;;;;8.83;7.70;;;1.60;99.90;;;;;;5047312;28;20182;-61
2023/01/20 04:33:27;;;;;;;10.43;7.60;;;2.00;99.90;;;;;;5046922;28;20210;-61
2023/01/20 04:35:53;;;;;;;8.90;8.00;;;2.10;99.90;;;;;;5041759;28;20206;-62
2023/01/20 04:38:18;;;;;;;8.30;7.20;;;2.50;99.90;;;;;;5035378;28;20193;-61
2023/01/20 04:40:44;;;;;;;10.30;8.17;;;2.30;99.90;;;;;;5043532;28;20582;-61
2023/01/20 04:43:11;;;;;;;13.17;8.17;;;2.20;99.90;;;;;;5043489;28;20190;-61
2023/01/20 04:45:37;;;;;;;9.88;7.75;;;2.20;99.90;;;;;;5042524;28;20202;-61
2023/01/20 04:48:07;;;;;;;9.30;7.63;;;2.20;99.90;;;;;;5043612;28;20754;-61
2023/01/20 04:50:38;;;;;;;11.07;7.60;;;1.80;99.90;;;;;;5045712;28;20240;-60
2023/01/20 04:53:03;;;;;;;8.88;7.55;;;1.90;99.90;;;;;;5041839;28;20209;-61
2023/01/20 04:55:31;;;;;;;7.33;6.63;;;1.60;99.90;;;;;;5039832;28;20711;-61
2023/01/20 04:57:57;;;;;;;9.10;7.40;;;1.90;99.90;;;;;;5043936;28;20240;-61
2023/01/20 05:00:22;;;;;;;10.07;8.27;;;2.00;99.90;;;;;;5043575;28;20190;-62
2023/01/20 05:02:48;;;;;;;9.10;8.03;;;1.90;99.90;;;;;;5043833;28;20538;-61
2023/01/20 05:05:14;;;;;;;8.33;7.43;;;2.40;99.90;;;;;;5049205;28;20580;-61
2023/01/20 05:07:40;;;;;;;8.63;7.77;;;1.90;99.90;;;;;;5048669;28;20190;-61
2023/01/20 05:10:06;;;;;;;9.07;7.40;;;2.10;99.90;;;;;;5042077;28;20956;-60
2023/01/20 05:12:32;;;;;;;8.70;7.80;;;2.30;99.90;;;;;;5042861;28;21116;-62
2023/01/20 05:14:57;;;;;;;10.80;8.53;;;2.30;99.90;;;;;;5043983;28;20206;-61
2023/01/20 05:17:23;;;;;;;10.10;7.50;;;1.60;99.90;;;;;;5040865;28;20194;-60
2023/01/20 05:19:48;;;;;;;19.97;12.00;;;2.00;99.90;;;;;;5041572;28;20221;-60
2023/01/20 05:22:14;;;;;;;9.17;8.17;;;2.00;99.90;;;;;;5043345;28;20631;-60
2023/01/20 05:24:39;;;;;;;10.57;8.93;;;2.10;99.90;;;;;;5040067;28;20182;-62
2023/01/20 05:27:05;;;;;;;10.67;7.73;;;2.00;99.90;;;;;;5038900;28;20228;-61
2023/01/20 05:29:31;;;;;;;11.13;8.30;;;2.70;99.90;;;;;;5059992;28;20265;-61
2023/01/20 05:31:57;;;;;;;10.13;7.73;;;2.00;99.90;;;;;;5047500;28;20857;-61
2023/01/20 05:34:22;;;;;;;9.60;8.27;;;2.70;99.90;;;;;;5045268;28;20503;-62
2023/01/20 05:36:52;;;;;;;8.43;7.53;;;1.80;99.90;;;;;;5044129;28;20201;-61
2023/01/20 05:39:18;;;;;;;10.32;7.78;;;2.60;99.90;;;;;;5046927;28;20327;-61
2023/01/20 05:41:45;;;;;;;10.15;8.93;;;2.40;99.90;;;;;;5049301;28;20273;-61
2023/01/20 05:44:14;;;;;;;10.20;8.85;;;2.40;99.90;;;;;;5047407;28;20190;-62
2023/01/20 05:46:40;;;;;;;10.30;8.07;;;2.20;99.90;;;;;;5039601;28;20218;-61
2023/01/20 05:49:06;;;;;;;12.00;9.67;;;2.30;99.90;;;;;;5047973;28;20185;-61
2023/01/20 05:51:31;;;;;;;11.00;9.27;;;2.30;99.90;;;;;;5045245;28;20190;-61
2023/01/20 05:53:57;;;;;;;10.93;9.03;;;2.30;99.90;;;;;;5041196;28;20291;-61
2023/01/20 05:56:38;;;;;;;11.23;9.57;;;2.20;99.90;;;;;;5057041;28;20353;-62
2023/01/20 05:59:05;;;;;;;10.07;8.90;;;2.40;99.90;;;;;;5044991;28;20261;-61
2023/01/20 06:01:30;;;;;;;13.27;10.23;;;2.40;99.90;;;;;;5043936;28;20183;-62
2023/01/20 06:03:56;;;;;;;9.90;8.30;;;1.80;99.90;;;;;;5041884;28;20551;-61
2023/01/20 06:06:21;;;;;;;11.10;8.17;;;2.20;99.90;;;;;;5046128;28;20236;-61
2023/01/20 06:08:48;;;;;;;12.87;8.97;;;2.60;99.90;;;;;;5044954;28;20198;-62
2023/01/20 06:11:14;;;;;;;10.82;8.43;;;2.30;99.90;;;;;;5041471;28;20562;-62
2023/01/20 06:13:40;;;;;;;10.23;8.73;;;2.60;99.90;;;;;;5045466;28;20206;-62
2023/01/20 06:16:06;;;;;;;9.70;8.70;;;2.00;99.90;;;;;;5037265;28;20233;-64
2023/01/20 06:18:33;;;;;;;10.02;8.68;;;2.10;99.90;;;;;;5043064;28;20182;-63
2023/01/20 06:20:58;;;;;;;14.40;10.32;;;2.20;99.90;;;;;;5041998;28;20647;-63
2023/01/20 06:23:25;;;;;;;11.30;8.50;;;1.70;99.90;;;;;;5045450;28;20201;-64
2023/01/20 06:26:01;;;;;;;8.98;7.78;;;1.20;99.90;;;;;;5045648;28;20535;-65
2023/01/20 06:28:27;;;;;;;9.50;8.60;;;1.90;99.90;;;;;;5039974;28;20599;-66
2023/01/20 06:31:12;;;;;;;10.90;8.90;;;1.90;99.90;;;;;;5039985;28;20184;-67
2023/01/20 06:33:38;;;;;;;10.55;9.15;;;1.70;99.90;;;;;;5045955;28;20240;-67
2023/01/20 06:36:05;;;;;;;11.63;7.97;;;1.60;99.90;;;;;;5043691;28;20210;-64
2023/01/20 06:38:33;;;;;;;9.32;8.32;;;1.70;99.90;;;;;;5045497;28;20236;-63
2023/01/20 06:41:00;;;;;;;9.68;8.32;;;1.80;99.90;;;;;;5043012;28;20246;-66
2023/01/20 06:43:32;;;;;;;13.02;8.80;;;2.00;99.90;;;;;;5038476;28;20259;-64
2023/01/20 06:46:02;;;;;;;11.38;9.48;;;1.70;99.90;;;;;;5043048;28;20209;-64
2023/01/20 06:48:29;;;;;;;13.15;8.75;;;1.70;99.90;;;;;;5047357;28;20197;-66
2023/01/20 06:51:14;;;;;;;9.65;7.80;;;1.70;99.90;;;;;;5047026;28;20227;-66
2023/01/20 06:53:40;;;;;;;10.95;9.50;;;1.60;99.90;;;;;;5046075;28;20213;-66
2023/01/20 06:56:06;;;;;;;10.00;7.70;;;1.70;99.90;;;;;;5046907;28;20209;-70
2023/01/20 06:58:32;;;;;;;12.43;9.48;;;1.70;99.90;;;;;;5055268;28;20221;-66
2023/01/20 07:01:04;;;;;;;9.43;8.13;;;1.80;99.90;;;;;;5039165;28;20228;-66
2023/01/20 07:03:30;;;;;;;10.60;8.43;;;2.20;99.90;;;;;;5044025;28;20190;-68
2023/01/20 07:06:05;;;;;;;11.27;9.10;;;2.10;99.90;;;;;;5042257;28;20213;-62
2023/01/20 07:08:31;;;;;;;10.77;8.95;;;2.00;99.90;;;;;;5060868;28;20232;-60
2023/01/20 07:10:57;;;;;;;8.77;7.87;;;1.90;99.90;;;;;;5046107;28;20197;-60
2023/01/20 07:13:22;;;;;;;10.30;9.30;;;1.70;99.90;;;;;;5042758;28;20656;-60
2023/01/20 07:15:48;;;;;;;8.70;7.87;;;2.10;99.90;;;;;;5040792;28;20626;-60
2023/01/20 07:18:14;;;;;;;12.40;9.00;;;1.80;99.90;;;;;;5049909;28;20428;-60
2023/01/20 07:20:39;;;;;;;9.70;8.70;;;1.90;99.90;;;;;;5049837;28;20181;-60
2023/01/20 07:23:05;;;;;;;8.93;7.90;;;1.40;99.90;;;;;;5045020;28;20194;-60
2023/01/20 07:25:31;;;;;;;9.63;7.70;;;2.10;99.90;;;;;;5047271;28;20296;-60
2023/01/20 07:27:57;;;;;;;11.43;8.30;;;1.80;99.90;;;;;;5049974;28;20178;-61
2023/01/20 07:30:24;;;;;;;11.38;8.65;;;2.00;99.90;;;;;;5049220;28;20186;-62
2023/01/20 07:32:50;;;;;;;11.18;7.78;;;2.10;99.90;;;;;;5048036;28;20285;-64
2023/01/20 07:35:16;;;;;;;9.20;8.30;;;1.70;99.90;;;;;;5052343;28;20244;-64
2023/01/20 07:37:42;;;;;;;11.65;8.95;;;2.10;99.90;;;;;;5048664;28;20185;-63
2023/01/20 07:40:08;;;;;;;10.13;8.47;;;2.50;99.90;;;;;;5052710;28;20181;-63
2023/01/20 07:42:37;;;;;;;10.63;7.85;;;2.40;99.90;;;;;;5048023;28;20225;-63
2023/01/20 07:45:03;;;;;;;10.20;8.93;;;2.40;99.90;;;;;;5049452;28;20216;-62
2023/01/20 07:47:28;;;;;;;10.60;8.27;;;2.30;99.90;;;;;;5048596;28;20189;-63
2023/01/20 07:49:54;;;;;;;10.80;8.23;;;2.20;99.90;;;;;;5045893;28;20193;-63
2023/01/20 07:52:19;;;;;;;15.00;8.90;;;2.30;99.90;;;;;;5044557;28;20218;-63
2023/01/20 07:54:45;;;;;;;11.23;8.60;;;2.30;99.90;;;;;;5045743;28;20189;-61
2023/01/20 07:57:11;;;;;;;12.20;9.10;;;2.40;99.90;;;;;;5051955;28;20184;-61
2023/01/20 07:59:36;;;;;;;11.50;9.07;;;2.40;99.90;;;;;;5046727;28;20197;-62
2023/01/20 08:02:02;;;;;;;9.23;7.43;;;2.40;99.90;;;;;;5048629;28;20193;-65
2023/01/20 08:04:28;;;;;;;9.70;8.70;;;2.40;99.90;;;;;;5044842;28;20272;-65
2023/01/20 08:06:53;;;;;;;10.30;8.37;;;1.90;99.90;;;;;;5048472;28;20465;-64
2023/01/20 08:09:19;;;;;;;10.57;8.00;;;2.20;99.90;;;;;;5046368;28;20179;-65
2023/01/20 08:11:45;;;;;;;10.30;9.27;;;2.10;99.90;;;;;;5042799;28;20185;-64
2023/01/20 08:14:10;;;;;;;10.67;8.53;;;2.30;99.90;;;;;;5049229;28;20186;-63
2023/01/20 08:16:36;;;;;;;9.20;7.43;;;2.50;99.90;;;;;;5048867;28;20209;-62
2023/01/20 08:19:02;;;;;;;10.10;8.47;;;2.60;99.90;;;;;;5048990;28;20189;-62
2023/01/20 08:21:29;;;;;;;11.17;7.63;;;2.40;99.90;;;;;;5047862;28;20277;-62
2023/01/20 08:23:59;;;;;;;9.55;8.35;;;2.10;99.90;;;;;;5047567;28;20697;-61
2023/01/20 08:26:28;;;;;;;9.02;8.05;;;2.50;99.90;;;;;;5039889;28;20662;-61
2023/01/20 08:28:54;;;;;;;15.73;10.63;;;2.20;99.90;;;;;;5046381;28;20899;-62
2023/01/20 08:31:22;;;;;;;9.65;8.02;;;2.30;99.90;;;;;;5047474;28;20197;-61
2023/01/20 08:33:52;;;;;;;11.02;7.75;;;2.30;99.90;;;;;;5048003;28;20238;-61
2023/01/20 08:36:21;;;;;;;8.82;7.93;;;2.60;99.90;;;;;;5049639;28;20225;-62
2023/01/20 08:38:47;;;;;;;9.70;7.50;;;2.70;99.90;;;;;;5052342;28;20179;-62
2023/01/20 08:41:22;;;;;;;9.77;7.93;;;2.70;99.90;;;;;;5051948;28;20214;-63
2023/01/20 08:43:49;;;;;;;9.88;8.30;;;2.60;99.90;;;;;;5044221;28;20501;-63
2023/01/20 08:46:16;;;;;;;12.35;8.15;;;2.60;99.90;;;;;;5049108;28;20633;-63
2023/01/20 08:48:42;;;;;;;9.80;8.60;;;2.80;99.90;;;;;;5050276;28;20194;-61
2023/01/20 08:51:20;;;;;;;10.55;7.50;;;2.60;99.90;;;;;;5043207;28;20190;-62
2023/01/20 08:53:46;;;;;;;11.63;7.53;;;2.60;99.90;;;;;;5049179;28;20209;-62
2023/01/20 08:56:13;;;;;;;9.68;8.65;;;2.60;99.90;;;;;;5044723;28;20206;-62
2023/01/20 08:58:39;;;;;;;11.10;8.30;;;2.70;99.90;;;;;;5044501;28;20635;-62
2023/01/20 09:01:28;;;;;;;8.80;7.97;;;2.70;99.90;;;;;;5037708;28;20191;-59
2023/01/20 09:03:55;;;;;;;9.00;7.40;;;2.90;99.90;;;;;;5043033;28;20187;-60
2023/01/20 09:06:21;;;;;;;8.60;7.57;;;3.30;99.90;;;;;;5045145;28;20220;-60
2023/01/20 09:08:48;;;;;;;10.07;8.20;;;2.70;99.90;;;;;;5043537;28;20189;-63
2023/01/20 09:11:16;;;;;;;7.20;6.50;;;3.00;99.90;;;;;;5046365;28;20225;-61
2023/01/20 09:13:42;;;;;;;10.10;8.65;;;3.00;99.90;;;;;;5046754;28;20215;-60
2023/01/20 09:16:11;;;;;;;10.30;8.90;;;3.10;99.90;;;;;;5044897;28;20211;-62
2023/01/20 09:18:37;;;;;;;10.07;8.25;;;2.80;99.90;;;;;;5045449;28;20186;-62
2023/01/20 09:21:05;;;;;;;10.93;8.63;;;2.90;99.90;;;;;;5047103;28;20179;-59
2023/01/20 09:23:33;;;;;;;11.93;9.07;;;2.80;99.90;;;;;;5037245;28;20257;-60
2023/01/20 09:26:00;;;;;;;11.65;8.50;;;2.90;99.90;;;;;;5048638;28;20206;-62
2023/01/20 09:28:26;;;;;;;9.45;8.20;;;2.90;99.90;;;;;;5049039;28;20186;-63
2023/01/20 09:30:59;;;;;;;9.13;8.13;;;2.90;99.90;;;;;;5046149;28;20197;-62
2023/01/20 09:33:25;;;;;;;9.35;7.63;;;2.80;99.90;;;;;;5046567;28;20220;-63
2023/01/20 09:35:57;;;;;;;11.13;7.90;;;3.00;99.90;;;;;;5048532;28;20205;-62
2023/01/20 09:44:06;;;;;;;7.50;6.65;;;3.20;99.90;;;;;;5040854;28;22041;-60
2023/01/20 09:46:39;;;;;;;8.70;7.80;;;3.10;99.90;;;;;;5040339;28;20214;-59
2023/01/20 09:55:25;;;;;;;9.07;6.88;;;3.30;99.90;;;;;;5046661;28;20703;-63
2023/01/20 09:58:21;;;;;;;10.63;7.28;;;3.20;99.90;;;;;;5051338;28;20248;-63
2023/01/20 10:00:52;;;;;;;9.43;8.05;;;2.60;99.90;;;;;;5036008;28;20221;-65
2023/01/20 10:03:25;;;;;;;10.70;7.55;;;3.20;99.90;;;;;;5039345;28;20199;-64
2023/01/20 10:05:54;;;;;;;12.35;8.27;;;3.50;99.90;;;;;;5045929;28;20208;-62
2023/01/20 10:08:33;;;;;;;9.38;7.68;;;3.30;99.90;;;;;;5048469;28;20229;-62
2023/01/20 10:11:12;;;;;;;8.35;7.28;;;3.40;99.90;;;;;;5047622;28;20174;-61
2023/01/20 10:13:58;;;;;;;9.15;8.23;;;3.10;99.90;;;;;;5043310;28;20753;-61
2023/01/20 10:16:40;;;;;;;9.30;7.65;;;3.50;99.90;;;;;;5039659;28;20235;-62
2023/01/20 10:19:33;;;;;;;11.57;7.80;;;3.80;99.90;;;;;;5044768;28;20217;-62
2023/01/20 10:22:14;;;;;;;9.60;8.50;;;3.70;99.90;;;;;;5042302;28;20204;-64
2023/01/20 10:24:51;;;;;;;10.65;8.40;;;3.70;99.90;;;;;;5042388;28;20189;-64
2023/01/20 10:27:18;;;;;;;8.90;7.47;;;3.90;99.90;;;;;;5047179;28;20208;-63
2023/01/20 10:29:53;;;;;;;10.88;7.75;;;3.50;99.90;;;;;;5043559;28;20183;-63
2023/01/20 10:32:32;;;;;;;9.00;7.85;;;3.90;99.90;;;;;;5043773;28;20684;-63
2023/01/20 10:35:07;;;;;;;12.93;8.18;;;4.20;99.90;;;;;;5047855;28;20554;-63
2023/01/20 10:37:34;;;;;;;7.00;6.32;;;4.30;99.90;;;;;;5044115;28;20186;-64
2023/01/20 10:40:15;;;;;;;8.52;6.85;;;4.20;99.90;;;;;;5045982;28;20180;-60
2023/01/20 10:42:47;;;;;;;8.75;7.95;;;4.70;99.90;;;;;;5041367;28;20195;-61
2023/01/20 10:45:21;;;;;;;7.85;7.05;;;5.10;99.90;;;;;;5045836;28;20256;-62
2023/01/20 10:48:08;;;;;;;10.20;7.22;;;5.10;99.90;;;;;;5043246;28;20234;-63
2023/01/20 10:50:54;;;;;;;9.27;6.50;;;5.10;99.90;;;;;;5050212;28;20187;-63
2023/01/20 10:53:23;;;;;;;8.85;6.97;;;5.00;99.90;;;;;;5045844;28;20278;-62
2023/01/20 10:55:58;;;;;;;7.45;6.65;;;5.10;99.90;;;;;;5058320;28;20225;-63
2023/01/20 10:58:27;;;;;;;7.35;6.45;;;5.90;99.50;;;;;;5057413;28;20535;-64
2023/01/20 11:00:54;;;;;;;7.78;7.00;;;6.60;98.30;;;;;;5051842;28;20182;-61
2023/01/20 11:03:22;;;;;;;6.85;6.15;;;7.00;96.30;;;;;;5053571;28;20197;-61
2023/01/20 11:05:50;;;;;;;6.95;4.95;;;7.00;96.00;;;;;;5053585;28;20203;-63
2023/01/20 11:08:18;;;;;;;6.90;5.93;;;7.30;95.60;;;;;;5052586;28;20276;-63
2023/01/20 11:10:45;;;;;;;6.13;5.53;;;7.70;95.10;;;;;;5051107;28;20196;-62
2023/01/20 11:13:11;;;;;;;6.40;5.10;;;8.30;93.80;;;;;;5055069;28;20220;-62
2023/01/20 11:15:45;;;;;;;6.83;6.13;;;8.40;92.50;;;;;;5049404;28;20201;-62
2023/01/20 11:18:19;;;;;;;6.07;5.07;;;8.20;92.40;;;;;;5051335;28;20436;-60
2023/01/20 11:20:49;;;;;;;4.78;4.38;;;8.80;91.60;;;;;;5050490;28;20769;-62
2023/01/20 11:23:22;;;;;;;6.30;5.10;;;8.30;91.50;;;;;;5049537;28;20187;-60
2023/01/20 11:25:56;;;;;;;5.85;5.35;;;8.90;91.10;;;;;;5053900;28;20250;-61
2023/01/20 11:28:23;;;;;;;6.95;6.25;;;9.00;90.70;;;;;;5051576;28;20260;-59
2023/01/20 11:30:54;;;;;;;6.30;4.40;;;8.40;90.90;;;;;;5052022;28;20232;-62
2023/01/20 11:33:23;;;;;;;5.88;4.40;;;8.60;90.90;;;;;;5052867;28;20286;-61
2023/01/20 11:36:27;;;;;;;4.03;3.63;;;9.10;90.00;;;;;;5052317;28;20272;-59
2023/01/20 11:38:56;;;;;;;4.10;3.53;;;8.90;88.20;;;;;;5038193;28;20336;-66
2023/01/20 11:41:27;;;;;;;5.03;4.53;;;9.40;86.40;;;;;;5053400;28;20186;-63
2023/01/20 11:43:57;;;;;;;8.02;5.10;;;9.40;85.00;;;;;;5050741;28;20482;-63
2023/01/20 11:46:32;;;;;;;7.07;4.63;;;8.90;86.50;;;;;;5049739;28;20226;-61
2023/01/20 11:49:21;;;;;;;7.25;5.85;;;8.20;87.50;;;;;;5050250;28;20231;-61
2023/01/20 11:51:56;;;;;;;5.88;5.28;;;7.20;89.60;;;;;;5047650;28;20209;-62
2023/01/20 11:54:24;;;;;;;6.30;5.68;;;7.10;91.60;;;;;;5044589;28;20186;-64
2023/01/20 11:56:55;;;;;;;6.60;5.00;;;7.00;92.30;;;;;;5046077;28;20216;-63
2023/01/20 11:59:34;;;;;;;4.50;4.10;;;6.70;92.40;;;;;;5055485;28;20661;-60
2023/01/20 12:02:19;;;;;;;6.30;4.35;;;6.50;92.70;;;;;;5048587;28;20209;-63
2023/01/20 12:04:49;;;;;;;5.60;3.92;;;6.20;93.00;;;;;;5050178;28;20636;-62
2023/01/20 12:07:19;;;;;;;7.15;4.38;;;6.10;93.30;;;;;;5047872;28;20238;-62
2023/01/20 12:09:51;;;;;;;5.03;4.43;;;6.30;93.40;;;;;;5043804;28;20520;-59
2023/01/20 12:12:39;;;;;;;6.97;5.63;;;6.10;93.60;;;;;;5046857;28;20213;-67
2023/01/20 12:15:28;;;;;;;4.00;3.60;;;5.50;93.20;;;;;;5039373;28;20293;-63
2023/01/20 12:18:07;;;;;;;5.32;4.82;;;5.80;92.90;;;;;;5045699;28;20185;-65
2023/01/20 12:20:47;;;;;;;5.30;4.07;;;5.40;93.80;;;;;;5043990;28;20261;-62
2023/01/20 12:23:20;;;;;;;4.45;4.05;;;6.10;93.90;;;;;;5046722;28;20181;-61
2023/01/20 12:26:04;;;;;;;6.10;4.25;;;5.60;93.50;;;;;;5048390;28;20779;-63
2023/01/20 12:28:47;;;;;;;5.10;3.72;;;5.40;94.10;;;;;;5042664;28;20243;-66
2023/01/20 12:31:18;;;;;;;6.55;4.63;;;5.30;94.20;;;;;;5044117;28;20716;-62
2023/01/20 12:33:48;;;;;;;5.95;4.43;;;4.70;94.60;;;;;;5048443;28;20662;-63
2023/01/20 12:36:13;;;;;;;6.20;4.15;;;4.90;94.90;;;;;;5051410;28;20207;-62
2023/01/20 12:39:00;;;;;;;4.93;3.30;;;5.00;94.70;;;;;;5045774;28;20562;-62
2023/01/20 12:41:51;;;;;;;5.97;3.35;;;5.40;94.40;;;;;;5049811;28;20875;-65
2023/01/20 12:44:35;;;;;;;4.40;4.00;;;5.70;94.30;;;;;;5046497;28;20205;-64
2023/01/20 12:47:19;;;;;;;6.00;4.00;;;5.50;94.30;;;;;;5046205;28;20193;-61
2023/01/20 12:49:54;;;;;;;5.10;4.50;;;5.70;93.50;;;;;;5046621;28;20223;-61
2023/01/20 12:52:34;;;;;;;4.75;3.95;;;5.70;94.00;;;;;;5052017;28;20699;-60
2023/01/20 12:55:16;;;;;;;7.03;3.75;;;5.50;92.90;;;;;;5048514;28;20497;-61
2023/01/20 12:57:50;;;;;;;4.05;3.65;;;5.60;93.20;;;;;;5049231;28;20529;-62
2023/01/20 13:00:42;;;;;;;3.95;3.55;;;5.90;92.50;;;;;;5044852;28;20840;-61
2023/01/20 13:03:30;;;;;;;5.40;3.97;;;5.80;92.70;;;;;;5046927;28;20272;-60
2023/01/20 13:06:01;;;;;;;4.80;4.35;;;5.60;93.90;;;;;;5048887;28;20226;-60
2023/01/20 13:08:50;;;;;;;4.47;4.07;;;5.60;93.80;;;;;;5037339;28;20192;-58
2023/01/20 13:11:21;;;;;;;5.90;5.38;;;5.50;94.10;;;;;;5041297;28;20206;-58
2023/01/20 13:13:49;;;;;;;6.15;4.47;;;5.60;94.50;;;;;;5039348;28;20588;-59
2023/01/20 13:16:28;;;;;;;5.28;4.78;;;5.50;94.10;;;;;;5042634;28;20329;-58
2023/01/20 13:19:05;;;;;;;7.13;4.90;;;5.00;95.00;;;;;;5043852;28;20205;-58
2023/01/20 13:21:32;;;;;;;8.25;5.32;;;5.00;95.20;;;;;;5048282;28;20712;-58